Time;durP1;ratioP1;P1;durP2;ratioP2;P2;SDS_P1;SDS_P2;PMS_P1;PMS_P2;Temp;Humidity;BMP_temperature;BMP_pressure;BME280_temperature;BME280_humidity;BME280_pressure;Samples;Min_cycle;Max_cycle;Signal;HPM_P1;HPM_P2
2021/03/28 00:00:31;;;;;;;;;;;;;;;11.87;53.27;102360.22;5043629;28;19926;-71
2021/03/28 00:02:59;;;;;;;;;;;;;;;11.90;53.37;102361.59;5046016;28;19929;-75
2021/03/28 00:05:33;;;;;;;;;;;;;;;11.82;53.00;102356.66;5060455;28;19932;-74
2021/03/28 00:08:01;;;;;;;;;;;;;;;11.76;53.13;102355.84;5036525;28;19932;-72
2021/03/28 00:10:34;;;;;;;;;;;;;;;11.68;53.30;102352.84;5051259;28;19932;-72
2021/03/28 00:13:12;;;;;;;;;;;;;;;11.62;53.48;102363.03;5053102;28;19924;-73
2021/03/28 00:15:59;;;;;;;;;;;;;;;11.56;53.62;102364.16;5052268;28;19924;-72
2021/03/28 00:19:18;;;;;;;;;;;;;;;11.54;53.79;102358.06;5052337;28;19925;-73
2021/03/28 00:21:54;;;;;;;;;;;;;;;11.62;53.77;102356.69;4974270;28;20378;-71
2021/03/28 00:24:21;;;;;;;;;;;;;;;11.64;53.35;102352.59;4957635;28;19926;-73
2021/03/28 00:27:08;;;;;;;;;;;;;;;11.52;53.77;102349.28;4975369;28;19937;-72
2021/03/28 00:29:50;;;;;;;;;;;;;;;11.67;53.21;102348.41;4954350;28;19933;-74
2021/03/28 00:32:20;;;;;;;;;;;;;;;11.60;53.32;102356.13;4973309;28;19937;-73
2021/03/28 00:34:53;;;;;;;;;;;;;;;11.64;53.39;102346.19;4958129;28;19957;-73
2021/03/28 00:37:46;;;;;;;;;;;;;;;11.48;53.55;102356.44;4957732;28;19926;-74
2021/03/28 00:40:20;;;;;;;;;;;;;;;11.69;52.90;102352.56;4971730;28;19926;-72
2021/03/28 00:42:48;;;;;;;;;;;;;;;11.37;53.87;102346.53;4988270;28;19930;-73
2021/03/28 00:45:30;;;;;;;;;;;;;;;11.38;53.65;102356.47;4972452;28;19925;-73
2021/03/28 00:48:10;;;;;;;;;;;;;;;11.39;53.61;102347.09;4990013;28;19933;-72
2021/03/28 00:50:41;;;;;;;;;;;;;;;11.42;53.42;102345.72;4979387;28;19933;-73
2021/03/28 00:53:10;;;;;;;;;;;;;;;11.47;53.37;102335.50;4974137;28;19925;-72
2021/03/28 00:55:56;;;;;;;;;;;;;;;11.55;53.20;102345.94;4959516;28;19935;-73
2021/03/28 00:58:29;;;;;;;;;;;;;;;11.36;53.56;102344.88;5026475;28;20411;-71
2021/03/28 01:01:23;;;;;;;;;;;;;;;11.44;53.47;102341.53;5035221;28;19925;-72
2021/03/28 01:04:06;;;;;;;;;;;;;;;11.50;53.30;102334.94;5050419;28;20043;-71
2021/03/28 01:06:43;;;;;;;;;;;;;;;11.33;53.63;102343.50;5055435;28;20392;-72
2021/03/28 01:09:28;;;;;;;;;;;;;;;11.32;53.63;102333.59;5054184;28;19925;-72
2021/03/28 01:12:18;;;;;;;;;;;;;;;11.03;54.50;102343.56;5055288;28;19943;-72
2021/03/28 01:14:48;;;;;;;;;;;;;;;11.16;54.15;102334.72;5013367;28;19941;-73
2021/03/28 01:17:18;;;;;;;;;;;;;;;11.24;53.88;102336.88;4997827;28;20420;-73
2021/03/28 01:19:45;;;;;;;;;;;;;;;11.28;53.81;102339.91;5016226;28;20380;-73
2021/03/28 01:22:16;;;;;;;;;;;;;;;11.05;54.48;102349.59;5020509;28;19941;-71
2021/03/28 01:24:44;;;;;;;;;;;;;;;10.98;54.67;102346.31;5013235;28;19932;-72
2021/03/28 01:27:42;;;;;;;;;;;;;;;10.85;55.07;102343.28;5014223;28;19937;-73
2021/03/28 01:30:13;;;;;;;;;;;;;;;11.00;54.66;102335.81;4954638;29;19933;-73
2021/03/28 01:32:43;;;;;;;;;;;;;;;10.79;55.42;102325.91;4954585;29;19927;-75
2021/03/28 01:35:12;;;;;;;;;;;;;;;10.87;55.21;102319.84;4924059;29;19926;-73
2021/03/28 01:37:42;;;;;;;;;;;;;;;11.00;55.08;102324.78;4963741;28;19938;-73
2021/03/28 01:40:35;;;;;;;;;;;;;;;10.78;55.13;102321.50;4957872;28;19955;-72
2021/03/28 01:43:11;;;;;;;;;;;;;;;10.92;54.75;102314.34;4897125;29;19927;-72
2021/03/28 01:45:37;;;;;;;;;;;;;;;11.05;54.26;102319.28;4898144;29;19978;-73
2021/03/28 01:48:10;;;;;;;;;;;;;;;10.90;54.59;102318.47;4898293;29;19928;-71
2021/03/28 01:50:52;;;;;;;;;;;;;;;10.75;54.72;102324.00;4896436;29;19935;-72
2021/03/28 01:53:21;;;;;;;;;;;;;;;10.62;54.80;102327.28;4860692;29;19936;-74
2021/03/28 01:55:51;;;;;;;;;;;;;;;10.75;54.62;102327.59;4860097;29;19932;-73
2021/03/28 01:58:23;;;;;;;;;;;;;;;10.75;54.52;102324.00;4881094;29;20021;-73
2021/03/28 02:01:08;;;;;;;;;;;;;;;10.77;54.50;102332.81;4879499;29;19927;-73
2021/03/28 02:03:53;;;;;;;;;;;;;;;10.70;54.44;102335.00;4878908;29;19932;-73
2021/03/28 02:06:22;;;;;;;;;;;;;;;10.57;54.82;102330.03;4885849;29;19939;-73
2021/03/28 02:09:01;;;;;;;;;;;;;;;10.61;54.59;102331.16;4935079;29;19934;-72
2021/03/28 02:11:35;;;;;;;;;;;;;;;10.68;54.27;102329.78;4920041;29;19949;-73
2021/03/28 02:14:08;;;;;;;;;;;;;;;10.77;53.90;102338.31;4935056;29;19930;-74
2021/03/28 02:16:58;;;;;;;;;;;;;;;10.77;53.82;102335.56;4936310;28;20499;-71
2021/03/28 02:19:27;;;;;;;;;;;;;;;10.64;54.05;102331.44;4958067;28;19936;-72
2021/03/28 02:21:56;;;;;;;;;;;;;;;10.63;54.17;102323.44;5061959;28;20316;-72
2021/03/28 02:24:26;;;;;;;;;;;;;;;10.67;54.05;102327.31;5027867;28;19924;-74
2021/03/28 02:27:03;;;;;;;;;;;;;;;10.50;54.36;102316.53;5044731;28;20418;-73
2021/03/28 02:29:39;;;;;;;;;;;;;;;10.53;54.39;102323.44;5060668;28;20384;-74
2021/03/28 02:32:24;;;;;;;;;;;;;;;10.40;54.69;102324.78;5059107;28;19928;-74
2021/03/28 02:34:54;;;;;;;;;;;;;;;10.47;54.58;102325.34;5054116;28;19925;-74
2021/03/28 02:37:36;;;;;;;;;;;;;;;10.55;53.76;102312.97;5037175;28;19940;-74
2021/03/28 02:40:19;;;;;;;;;;;;;;;10.56;53.87;102307.19;5037697;28;19932;-74
2021/03/28 02:43:03;;;;;;;;;;;;;;;10.66;53.67;102307.19;5052473;28;19932;-73
2021/03/28 02:45:33;;;;;;;;;;;;;;;10.43;53.87;102304.94;5052122;28;19924;-74
2021/03/28 02:48:19;;;;;;;;;;;;;;;10.41;54.31;102307.16;5035262;28;19932;-75
2021/03/28 02:51:05;;;;;;;;;;;;;;;10.41;54.32;102306.34;5054451;28;20028;-72
2021/03/28 02:53:31;;;;;;;;;;;;;;;10.29;54.59;102309.34;5053885;28;19924;-74
2021/03/28 02:56:03;;;;;;;;;;;;;;;10.14;54.71;102299.13;5073187;28;19928;-73
2021/03/28 02:58:35;;;;;;;;;;;;;;;10.30;54.71;102299.16;5054099;28;19924;-72
2021/03/28 03:01:39;;;;;;;;;;;;;;;10.41;54.41;102290.63;5039917;28;19925;-72
2021/03/28 03:04:11;;;;;;;;;;;;;;;10.25;54.38;102288.13;5053501;28;19933;-73
2021/03/28 03:06:44;;;;;;;;;;;;;;;10.29;54.16;102287.31;5037135;28;20284;-73
2021/03/28 03:09:15;;;;;;;;;;;;;;;10.23;54.69;102282.91;5052319;28;19932;-74
2021/03/28 03:11:57;;;;;;;;;;;;;;;10.37;54.15;102303.31;5052048;28;19925;-73
2021/03/28 03:14:34;;;;;;;;;;;;;;;10.15;54.69;102302.69;5051141;28;20288;-70
2021/03/28 03:17:29;;;;;;;;;;;;;;;10.29;54.31;102309.34;5068196;28;20368;-72
2021/03/28 03:20:04;;;;;;;;;;;;;;;10.17;54.77;102322.53;5052382;28;20134;-72
2021/03/28 03:22:49;;;;;;;;;;;;;;;10.12;55.08;102330.78;5052529;28;19925;-73
2021/03/28 03:25:37;;;;;;;;;;;;;;;10.11;54.84;102331.91;5068483;28;19929;-73
2021/03/28 03:28:23;;;;;;;;;;;;;;;10.02;54.93;102337.03;5069843;28;19932;-74
2021/03/28 03:30:57;;;;;;;;;;;;;;;9.90;55.47;102341.97;5072469;28;19925;-73
2021/03/28 03:33:24;;;;;;;;;;;;;;;9.88;55.64;102340.59;5053881;28;19939;-73
2021/03/28 03:36:04;;;;;;;;;;;;;;;10.15;54.75;102341.25;5055479;28;20299;-72
2021/03/28 03:38:35;;;;;;;;;;;;;;;9.73;55.77;102352.34;5088752;28;19925;-74
2021/03/28 03:41:14;;;;;;;;;;;;;;;9.86;55.69;102354.63;5073470;28;19935;-72
2021/03/28 03:43:50;;;;;;;;;;;;;;;9.69;56.01;102340.22;5038476;28;19924;-72
2021/03/28 03:46:29;;;;;;;;;;;;;;;9.92;55.40;102338.97;5072828;28;19929;-72
2021/03/28 03:49:07;;;;;;;;;;;;;;;9.85;55.64;102335.63;5073078;28;20407;-73
2021/03/28 03:51:45;;;;;;;;;;;;;;;9.78;55.94;102337.81;5038436;28;20398;-73
2021/03/28 03:54:31;;;;;;;;;;;;;;;9.77;56.04;102325.97;5034636;28;20300;-73
2021/03/28 03:57:06;;;;;;;;;;;;;;;9.72;56.09;102336.94;5052436;28;19925;-73
2021/03/28 03:59:33;;;;;;;;;;;;;;;9.46;56.94;102337.06;5052917;28;20433;-74
2021/03/28 04:02:03;;;;;;;;;;;;;;;9.37;57.37;102338.66;5052924;28;20039;-73
2021/03/28 04:04:41;;;;;;;;;;;;;;;9.47;57.22;102342.31;5034540;28;19925;-73
2021/03/28 04:07:12;;;;;;;;;;;;;;;9.71;56.27;102345.47;5052734;28;20309;-73
2021/03/28 04:09:39;;;;;;;;;;;;;;;9.77;56.24;102342.47;5050901;28;19928;-75
2021/03/28 04:12:17;;;;;;;;;;;;;;;9.86;55.75;102348.28;5052412;28;19925;-73
2021/03/28 04:14:52;;;;;;;;;;;;;;;9.71;56.39;102346.28;5035201;28;19925;-73
2021/03/28 04:17:19;;;;;;;;;;;;;;;9.55;57.06;102339.06;5052677;28;19935;-71
2021/03/28 04:19:48;;;;;;;;;;;;;;;9.50;57.01;102347.25;5051872;28;19925;-74
2021/03/28 04:22:20;;;;;;;;;;;;;;;9.56;57.20;102356.38;5052045;28;19924;-73
2021/03/28 04:24:57;;;;;;;;;;;;;;;9.60;57.00;102363.00;5052662;28;19925;-72
2021/03/28 04:27:35;;;;;;;;;;;;;;;9.57;56.89;102366.31;5052750;28;19947;-71
2021/03/28 04:30:04;;;;;;;;;;;;;;;9.43;57.38;102362.38;5052889;28;20300;-73
2021/03/28 04:33:06;;;;;;;;;;;;;;;9.38;57.71;102371.41;5011195;28;19924;-73
2021/03/28 04:35:33;;;;;;;;;;;;;;;9.51;57.16;102362.69;4990738;28;19941;-72
2021/03/28 04:38:15;;;;;;;;;;;;;;;9.42;57.77;102368.94;4957332;28;19966;-72
2021/03/28 04:40:55;;;;;;;;;;;;;;;9.50;57.16;102369.28;4991113;28;19926;-72
2021/03/28 04:43:35;;;;;;;;;;;;;;;9.45;57.80;102371.19;4990368;28;19933;-71
2021/03/28 04:46:20;;;;;;;;;;;;;;;9.50;57.31;102372.03;4973766;28;19933;-73
2021/03/28 04:49:11;;;;;;;;;;;;;;;9.34;58.21;102370.28;4989715;28;19926;-72
2021/03/28 04:51:37;;;;;;;;;;;;;;;9.65;57.30;102377.63;4989674;28;20329;-73
2021/03/28 04:54:15;;;;;;;;;;;;;;;9.47;58.02;102371.72;4974299;28;19925;-74
2021/03/28 04:57:01;;;;;;;;;;;;;;;9.39;58.12;102374.97;4957733;28;20329;-72
2021/03/28 04:59:59;;;;;;;;;;;;;;;9.76;57.38;102367.50;4990456;28;20389;-73
2021/03/28 05:02:35;;;;;;;;;;;;;;;9.47;58.00;102374.47;4951285;29;20322;-72
2021/03/28 05:05:02;;;;;;;;;;;;;;;9.26;58.62;102370.78;4950342;29;19934;-72
2021/03/28 05:07:47;;;;;;;;;;;;;;;9.19;59.00;102364.66;4934006;29;19930;-72
2021/03/28 05:10:21;;;;;;;;;;;;;;;9.34;58.81;102366.69;4995533;28;19941;-73
2021/03/28 05:12:54;;;;;;;;;;;;;;;9.06;59.69;102368.72;5012537;28;19925;-72
2021/03/28 05:15:26;;;;;;;;;;;;;;;9.16;59.39;102364.38;5029419;28;20412;-72
2021/03/28 05:17:53;;;;;;;;;;;;;;;9.07;59.81;102372.28;5011815;28;19925;-73
2021/03/28 05:20:39;;;;;;;;;;;;;;;9.08;59.85;102383.00;5028806;28;19979;-75
2021/03/28 05:23:27;;;;;;;;;;;;;;;9.17;59.71;102374.28;5028574;28;19964;-72
2021/03/28 05:26:09;;;;;;;;;;;;;;;9.15;59.87;102357.22;5029463;28;19932;-73
2021/03/28 05:28:41;;;;;;;;;;;;;;;9.05;60.37;102369.78;5029759;28;19932;-74
2021/03/28 05:31:10;;;;;;;;;;;;;;;9.13;60.12;102356.66;5013203;28;20408;-72
2021/03/28 05:33:37;;;;;;;;;;;;;;;9.13;60.13;102371.25;5044137;28;19944;-73
2021/03/28 05:36:22;;;;;;;;;;;;;;;9.15;60.17;102363.56;5071717;28;19943;-72
2021/03/28 05:39:08;;;;;;;;;;;;;;;9.18;60.13;102373.19;5071421;28;19928;-73
2021/03/28 05:41:34;;;;;;;;;;;;;;;9.16;60.03;102383.59;5070518;28;19924;-73
2021/03/28 05:44:18;;;;;;;;;;;;;;;9.17;60.24;102377.84;5054254;28;19931;-74
2021/03/28 05:46:48;;;;;;;;;;;;;;;9.12;60.36;102375.06;5037243;28;20261;-73
2021/03/28 05:49:33;;;;;;;;;;;;;;;9.30;59.77;102379.31;5071453;28;19939;-73
2021/03/28 05:52:00;;;;;;;;;;;;;;;9.35;59.82;102387.59;5090835;28;20307;-73
2021/03/28 05:54:45;;;;;;;;;;;;;;;9.22;59.75;102385.31;5040528;28;20002;-72
2021/03/28 05:57:40;;;;;;;;;;;;;;;9.35;59.68;102382.09;5092794;28;19947;-73
2021/03/28 06:00:22;;;;;;;;;;;;;;;9.01;60.76;102376.91;5077480;28;19924;-72
2021/03/28 06:03:10;;;;;;;;;;;;;;;9.28;59.97;102385.09;5074042;28;19932;-71
2021/03/28 06:05:40;;;;;;;;;;;;;;;9.30;60.15;102382.91;5057105;28;19928;-74
2021/03/28 06:08:25;;;;;;;;;;;;;;;9.05;60.53;102393.69;5074904;28;19924;-73
2021/03/28 06:11:01;;;;;;;;;;;;;;;9.19;60.10;102388.59;5073321;28;19932;-71
2021/03/28 06:13:27;;;;;;;;;;;;;;;9.12;60.28;102393.50;5059976;28;19924;-72
2021/03/28 06:16:08;;;;;;;;;;;;;;;8.83;61.26;102393.81;5038241;28;19940;-74
2021/03/28 06:18:54;;;;;;;;;;;;;;;8.79;61.36;102389.06;5054063;28;19925;-72
2021/03/28 06:21:30;;;;;;;;;;;;;;;8.78;61.56;102392.91;5053878;28;19932;-72
2021/03/28 06:23:56;;;;;;;;;;;;;;;8.62;62.36;102394.69;5035677;28;19924;-74
2021/03/28 06:26:29;;;;;;;;;;;;;;;8.76;61.92;102398.69;5054759;28;19925;-73
2021/03/28 06:29:11;;;;;;;;;;;;;;;8.76;61.77;102400.59;5054656;28;19928;-72
2021/03/28 06:31:37;;;;;;;;;;;;;;;8.68;61.92;102401.06;5054561;28;19924;-71
2021/03/28 06:34:11;;;;;;;;;;;;;;;8.73;61.95;102396.47;5052569;28;19931;-74
2021/03/28 06:36:56;;;;;;;;;;;;;;;8.79;61.83;102397.31;5053242;28;20293;-72
2021/03/28 06:39:46;;;;;;;;;;;;;;;8.89;61.56;102400.97;5037181;28;19936;-73
2021/03/28 06:42:28;;;;;;;;;;;;;;;8.81;61.61;102406.13;5067726;28;19983;-72
2021/03/28 06:45:00;;;;;;;;;;;;;;;8.83;62.22;102407.53;5024056;28;19925;-73
2021/03/28 06:47:46;;;;;;;;;;;;;;;9.23;60.92;102406.22;5053793;28;19924;-72
2021/03/28 06:50:16;;;;;;;;;;;;;;;9.14;61.03;102405.88;5089073;28;19932;-74
2021/03/28 06:52:53;;;;;;;;;;;;;;;9.23;60.90;102407.03;5075328;28;20462;-73
2021/03/28 06:55:26;;;;;;;;;;;;;;;9.42;60.44;102401.94;5056101;28;19936;-73
2021/03/28 06:58:12;;;;;;;;;;;;;;;9.54;60.15;102405.31;5055962;28;19936;-73
2021/03/28 07:00:48;;;;;;;;;;;;;;;9.55;59.99;102409.75;5053904;28;19924;-70
2021/03/28 07:03:23;;;;;;;;;;;;;;;9.41;60.56;102414.06;5073321;28;19932;-73
2021/03/28 07:05:59;;;;;;;;;;;;;;;9.71;59.74;102412.31;5055361;28;19928;-72
2021/03/28 07:08:32;;;;;;;;;;;;;;;9.68;59.95;102407.34;5074026;28;19924;-73
2021/03/28 07:11:14;;;;;;;;;;;;;;;9.64;60.13;102419.16;5074597;28;19935;-73
2021/03/28 07:13:43;;;;;;;;;;;;;;;9.75;59.90;102418.13;5038558;28;19932;-72
2021/03/28 07:16:15;;;;;;;;;;;;;;;9.91;59.42;102415.19;5074197;28;19931;-72
2021/03/28 07:19:07;;;;;;;;;;;;;;;9.93;58.99;102426.75;5058054;28;20329;-73
2021/03/28 07:21:59;;;;;;;;;;;;;;;9.87;59.56;102435.25;5050880;28;19928;-74
2021/03/28 07:24:45;;;;;;;;;;;;;;;9.97;59.28;102427.88;5059453;28;19931;-73
2021/03/28 07:27:33;;;;;;;;;;;;;;;10.05;58.60;102426.53;5060230;28;19924;-73
2021/03/28 07:30:22;;;;;;;;;;;;;;;10.18;58.32;102418.63;5088175;28;19931;-74
2021/03/28 07:33:10;;;;;;;;;;;;;;;10.29;58.00;102422.25;5072972;28;19935;-74
2021/03/28 07:35:59;;;;;;;;;;;;;;;10.48;57.72;102420.66;5054564;28;19932;-71
2021/03/28 07:38:44;;;;;;;;;;;;;;;10.61;57.49;102420.16;5059476;28;19928;-72
2021/03/28 07:41:25;;;;;;;;;;;;;;;10.39;57.94;102435.25;5049396;28;19925;-74
2021/03/28 07:44:01;;;;;;;;;;;;;;;10.42;57.86;102429.19;5083056;28;19935;-71
2021/03/28 07:46:44;;;;;;;;;;;;;;;10.74;57.02;102427.88;5082915;28;19951;-71
2021/03/28 07:49:13;;;;;;;;;;;;;;;10.93;56.48;102423.50;5035579;28;20371;-72
2021/03/28 07:52:01;;;;;;;;;;;;;;;10.80;56.72;102429.56;5054649;28;19924;-72
2021/03/28 07:54:28;;;;;;;;;;;;;;;10.87;56.72;102441.16;5072899;28;19924;-73
2021/03/28 07:57:08;;;;;;;;;;;;;;;10.88;56.57;102444.75;5073039;28;19932;-75
2021/03/28 07:59:41;;;;;;;;;;;;;;;10.97;56.51;102443.06;5050221;28;19924;-72
2021/03/28 08:02:26;;;;;;;;;;;;;;;10.98;55.87;102447.50;5068234;28;19936;-75
2021/03/28 08:04:55;;;;;;;;;;;;;;;11.16;55.86;102445.03;5052997;28;19979;-75
2021/03/28 08:07:34;;;;;;;;;;;;;;;11.29;55.58;102438.13;5062340;28;19932;-73
2021/03/28 08:10:33;;;;;;;;;;;;;;;11.35;54.93;102437.84;5055297;28;19929;-74
2021/03/28 08:13:19;;;;;;;;;;;;;;;11.34;54.79;102440.91;5013824;28;20384;-73
2021/03/28 08:15:55;;;;;;;;;;;;;;;11.26;54.88;102445.03;5025153;28;20033;-73
2021/03/28 08:18:27;;;;;;;;;;;;;;;11.45;54.28;102448.06;5013382;28;20025;-72
2021/03/28 08:20:54;;;;;;;;;;;;;;;11.50;54.21;102448.06;5029192;28;19925;-73
2021/03/28 08:23:39;;;;;;;;;;;;;;;11.57;53.90;102447.78;5029423;28;19933;-73
2021/03/28 08:26:12;;;;;;;;;;;;;;;11.90;52.96;102455.47;5003828;28;19933;-73
2021/03/28 08:28:38;;;;;;;;;;;;;;;11.95;52.72;102450.78;5002115;28;19980;-70
2021/03/28 08:31:16;;;;;;;;;;;;;;;11.97;52.35;102447.72;5027940;28;19929;-73
2021/03/28 08:34:01;;;;;;;;;;;;;;;12.08;52.17;102450.16;5012865;28;20405;-74
2021/03/28 08:36:46;;;;;;;;;;;;;;;12.09;52.26;102451.81;5012089;28;20409;-72
2021/03/28 08:39:33;;;;;;;;;;;;;;;12.01;52.27;102446.88;5029748;28;20032;-74
2021/03/28 08:42:10;;;;;;;;;;;;;;;12.06;51.87;102454.31;4973277;28;19937;-73
2021/03/28 08:44:37;;;;;;;;;;;;;;;12.08;51.77;102446.59;4942455;29;19942;-73
2021/03/28 08:47:11;;;;;;;;;;;;;;;12.32;51.00;102447.59;4958749;28;20373;-73
2021/03/28 08:49:47;;;;;;;;;;;;;;;12.27;50.79;102453.94;4963897;28;19926;-73
2021/03/28 08:52:32;;;;;;;;;;;;;;;12.40;49.83;102447.00;4977022;28;19941;-71
2021/03/28 08:55:08;;;;;;;;;;;;;;;12.54;49.15;102439.75;4971115;28;19926;-72
2021/03/28 08:57:56;;;;;;;;;;;;;;;12.44;48.88;102446.16;4993016;28;19926;-73
2021/03/28 09:00:34;;;;;;;;;;;;;;;12.47;48.35;102450.28;4993480;28;19941;-73
2021/03/28 09:03:11;;;;;;;;;;;;;;;12.30;47.77;102452.56;4991928;28;20384;-72
2021/03/28 09:05:43;;;;;;;;;;;;;;;12.70;46.89;102463.44;4991929;28;19968;-73
2021/03/28 09:08:11;;;;;;;;;;;;;;;12.89;46.97;102464.41;4994594;28;19932;-73
2021/03/28 09:10:56;;;;;;;;;;;;;;;12.81;46.31;102473.34;5002487;28;19925;-73
2021/03/28 09:13:45;;;;;;;;;;;;;;;12.79;46.11;102467.25;4990382;28;19926;-72
2021/03/28 09:16:17;;;;;;;;;;;;;;;12.79;46.35;102464.50;4989453;28;19937;-72
2021/03/28 09:18:49;;;;;;;;;;;;;;;12.88;45.50;102471.06;5008875;28;19932;-73
2021/03/28 09:21:26;;;;;;;;;;;;;;;12.73;45.75;102473.91;5084899;28;19925;-73
2021/03/28 09:23:55;;;;;;;;;;;;;;;12.97;47.34;102472.09;5036056;28;19924;-73
2021/03/28 09:26:28;;;;;;;;;;;;;;;13.33;45.11;102472.72;5074134;28;19935;-73
2021/03/28 09:29:34;;;;;;;;;;;;;;;13.41;43.44;102480.38;5042442;28;20460;-74
2021/03/28 09:32:06;;;;;;;;;;;;;;;13.35;44.43;102476.81;5032188;28;19929;-74
2021/03/28 09:34:39;;;;;;;;;;;;;;;13.35;44.25;102482.34;5029568;28;19940;-74
2021/03/28 09:37:06;;;;;;;;;;;;;;;13.30;44.43;102478.81;5031437;28;19925;-73
2021/03/28 09:39:53;;;;;;;;;;;;;;;13.51;44.64;102475.59;5032050;28;19932;-72
2021/03/28 09:42:38;;;;;;;;;;;;;;;13.52;44.08;102474.47;4959433;28;19940;-70
2021/03/28 09:45:24;;;;;;;;;;;;;;;13.59;44.38;102474.13;4953895;28;19927;-72
2021/03/28 09:48:13;;;;;;;;;;;;;;;13.66;46.06;102479.34;4953880;28;19931;-73
2021/03/28 09:50:42;;;;;;;;;;;;;;;13.99;43.70;102489.53;4956429;28;19926;-73
2021/03/28 09:53:14;;;;;;;;;;;;;;;14.19;43.70;102490.13;4937828;28;19927;-71
2021/03/28 09:56:05;;;;;;;;;;;;;;;14.27;42.79;102477.59;4961092;28;19926;-72
2021/03/28 09:58:41;;;;;;;;;;;;;;;14.30;43.00;102469.53;4957133;28;19937;-73
2021/03/28 10:01:27;;;;;;;;;;;;;;;14.46;43.07;102459.06;4950529;28;20382;-73
2021/03/28 10:03:56;;;;;;;;;;;;;;;14.63;42.34;102459.38;4957663;28;19927;-74
2021/03/28 10:06:27;;;;;;;;;;;;;;;14.67;42.71;102454.91;4949019;28;19926;-74
2021/03/28 10:09:28;;;;;;;;;;;;;;;14.72;41.29;102462.31;4973480;28;19949;-72
2021/03/28 10:11:57;;;;;;;;;;;;;;;14.70;41.51;102461.81;4952563;28;19930;-72
2021/03/28 10:14:42;;;;;;;;;;;;;;;14.67;42.20;102460.44;4933797;29;19926;-72
2021/03/28 10:17:20;;;;;;;;;;;;;;;14.86;41.31;102460.44;4953551;28;19926;-74
2021/03/28 10:19:49;;;;;;;;;;;;;;;14.92;40.92;102462.03;4968080;28;19932;-72
2021/03/28 10:22:16;;;;;;;;;;;;;;;14.99;40.21;102457.75;5013652;28;20678;-68
2021/03/28 10:24:57;;;;;;;;;;;;;;;14.83;40.82;102452.72;5036238;28;19932;-69
2021/03/28 10:27:27;;;;;;;;;;;;;;;15.14;41.10;102456.69;5036641;28;19968;-72
2021/03/28 10:30:00;;;;;;;;;;;;;;;15.27;41.00;102448.41;5018655;28;19936;-73
2021/03/28 10:32:39;;;;;;;;;;;;;;;15.33;40.35;102447.19;5012459;28;19985;-68
2021/03/28 10:35:18;;;;;;;;;;;;;;;14.97;39.31;102465.56;5015872;28;20367;-68
2021/03/28 10:38:07;;;;;;;;;;;;;;;15.05;39.54;102451.00;5029536;28;19926;-69
2021/03/28 10:40:34;;;;;;;;;;;;;;;14.99;40.89;102440.28;5017604;28;19924;-71
2021/03/28 10:43:04;;;;;;;;;;;;;;;14.89;38.71;102448.75;5049435;28;19925;-70
2021/03/28 10:45:34;;;;;;;;;;;;;;;14.85;40.97;102440.22;5049585;28;19925;-70
2021/03/28 10:48:04;;;;;;;;;;;;;;;14.82;40.92;102438.00;5064548;28;19932;-72
2021/03/28 10:50:36;;;;;;;;;;;;;;;14.71;39.39;102433.75;5074023;28;19925;-70
2021/03/28 10:53:06;;;;;;;;;;;;;;;14.85;39.07;102445.75;5040858;28;19925;-71
2021/03/28 10:55:36;;;;;;;;;;;;;;;14.53;39.18;102448.44;5059388;28;19925;-73
2021/03/28 10:58:27;;;;;;;;;;;;;;;14.34;39.97;102453.94;5073445;28;20291;-69
2021/03/28 11:01:13;;;;;;;;;;;;;;;14.72;39.18;102453.97;5053062;28;19943;-70
2021/03/28 11:03:45;;;;;;;;;;;;;;;14.93;39.25;102458.13;5070316;28;20392;-69
2021/03/28 11:06:37;;;;;;;;;;;;;;;14.59;39.32;102450.03;5063391;28;19925;-69
2021/03/28 11:09:08;;;;;;;;;;;;;;;14.82;39.50;102451.88;5039480;28;19924;-72
2021/03/28 11:11:47;;;;;;;;;;;;;;;14.94;39.66;102452.25;5048325;28;19931;-71
2021/03/28 11:14:21;;;;;;;;;;;;;;;14.91;40.41;102449.25;5071812;28;19933;-70
2021/03/28 11:16:58;;;;;;;;;;;;;;;14.86;39.15;102443.78;5055559;28;20394;-70
2021/03/28 11:19:46;;;;;;;;;;;;;;;14.92;39.35;102443.44;5055255;28;20372;-73
2021/03/28 11:22:20;;;;;;;;;;;;;;;14.94;39.17;102435.59;5055173;28;19936;-72
2021/03/28 11:25:01;;;;;;;;;;;;;;;15.09;39.17;102443.72;5052138;28;19925;-71
2021/03/28 11:27:48;;;;;;;;;;;;;;;15.20;39.61;102433.28;5050039;28;19946;-72
2021/03/28 11:30:29;;;;;;;;;;;;;;;15.29;38.80;102431.47;5071773;28;19931;-70
2021/03/28 11:33:22;;;;;;;;;;;;;;;15.46;37.98;102409.53;5071531;28;19925;-70
2021/03/28 11:35:54;;;;;;;;;;;;;;;15.66;37.57;102406.38;5010221;28;20025;-71
2021/03/28 11:38:21;;;;;;;;;;;;;;;15.84;37.36;102412.97;5009711;28;19925;-70
2021/03/28 11:41:06;;;;;;;;;;;;;;;15.79;37.02;102417.50;5010022;28;19932;-69
2021/03/28 11:43:38;;;;;;;;;;;;;;;15.47;37.33;102413.94;5032091;28;20308;-71
2021/03/28 11:46:21;;;;;;;;;;;;;;;14.98;38.67;102422.78;5009492;28;19932;-71
2021/03/28 11:48:55;;;;;;;;;;;;;;;15.14;38.48;102421.44;5013382;28;20220;-71
2021/03/28 11:51:25;;;;;;;;;;;;;;;15.58;38.04;102419.03;5027097;28;19940;-70
2021/03/28 11:54:11;;;;;;;;;;;;;;;15.87;37.80;102420.69;5011143;28;19925;-69
2021/03/28 11:56:42;;;;;;;;;;;;;;;15.91;37.56;102411.44;5007102;28;19936;-71
2021/03/28 11:59:23;;;;;;;;;;;;;;;15.86;37.50;102419.06;5027395;28;19925;-71
2021/03/28 12:02:01;;;;;;;;;;;;;;;15.59;37.85;102420.66;5012869;28;20329;-71
2021/03/28 12:04:28;;;;;;;;;;;;;;;15.20;38.73;102430.50;5010208;28;19965;-71
2021/03/28 12:07:00;;;;;;;;;;;;;;;15.41;38.77;102415.97;5021011;28;19925;-73
2021/03/28 12:09:28;;;;;;;;;;;;;;;15.63;38.62;102413.38;4997709;28;19925;-71
2021/03/28 12:12:16;;;;;;;;;;;;;;;15.82;38.83;102407.72;5018669;28;20381;-70
2021/03/28 12:14:46;;;;;;;;;;;;;;;15.93;38.03;102414.75;5059679;28;20387;-70
2021/03/28 12:17:20;;;;;;;;;;;;;;;16.03;37.75;102410.91;5071278;28;19931;-70
2021/03/28 12:19:49;;;;;;;;;;;;;;;16.31;36.80;102415.34;5034905;28;19925;-69
2021/03/28 12:22:25;;;;;;;;;;;;;;;16.23;37.23;102411.31;5042943;28;19936;-67
2021/03/28 12:24:58;;;;;;;;;;;;;;;16.46;36.93;102412.22;5052406;28;20332;-67
2021/03/28 12:27:45;;;;;;;;;;;;;;;16.43;37.01;102404.50;5061646;28;19928;-68
2021/03/28 12:30:25;;;;;;;;;;;;;;;16.16;36.74;102412.88;5065351;28;20142;-70
2021/03/28 12:33:00;;;;;;;;;;;;;;;16.00;38.18;102404.03;5065609;28;19929;-68
2021/03/28 12:35:32;;;;;;;;;;;;;;;16.28;37.79;102407.63;5051524;28;19924;-69
2021/03/28 12:38:14;;;;;;;;;;;;;;;16.61;36.50;102393.28;5048886;28;19924;-68
2021/03/28 12:40:48;;;;;;;;;;;;;;;16.29;37.37;102390.63;5029351;28;19932;-69
2021/03/28 12:43:22;;;;;;;;;;;;;;;16.32;36.97;102394.75;5056776;28;20403;-68
2021/03/28 12:46:02;;;;;;;;;;;;;;;16.45;37.79;102394.72;5070439;28;19924;-72
2021/03/28 12:48:31;;;;;;;;;;;;;;;16.44;37.11;102390.28;5054282;28;19924;-71
2021/03/28 12:51:00;;;;;;;;;;;;;;;16.77;36.57;102388.97;5047532;28;19928;-75
2021/03/28 12:53:30;;;;;;;;;;;;;;;16.72;37.22;102385.50;5042400;28;19924;-71
2021/03/28 12:55:57;;;;;;;;;;;;;;;16.65;36.94;102388.72;5042499;28;19924;-72
2021/03/28 12:58:52;;;;;;;;;;;;;;;16.81;37.57;102389.19;5083185;28;19932;-64
2021/03/28 13:01:32;;;;;;;;;;;;;;;17.09;38.16;102378.75;5047264;28;19925;-65
2021/03/28 13:04:07;;;;;;;;;;;;;;;16.48;36.83;102387.72;5063883;28;20292;-67
2021/03/28 13:06:44;;;;;;;;;;;;;;;16.49;37.03;102381.84;5055592;28;19940;-68
2021/03/28 13:09:11;;;;;;;;;;;;;;;16.29;36.75;102387.00;5067604;28;19925;-65
2021/03/28 13:11:48;;;;;;;;;;;;;;;16.37;37.34;102394.63;5055738;28;19933;-65
2021/03/28 13:14:33;;;;;;;;;;;;;;;16.56;37.20;102385.03;5044029;28;19924;-66
2021/03/28 13:17:07;;;;;;;;;;;;;;;16.75;37.38;102380.13;5064261;28;19925;-68
2021/03/28 13:19:35;;;;;;;;;;;;;;;16.87;36.13;102371.22;5066168;28;19936;-68
2021/03/28 13:22:24;;;;;;;;;;;;;;;16.92;35.77;102367.50;5063032;28;19924;-66
2021/03/28 13:25:05;;;;;;;;;;;;;;;16.91;36.12;102363.06;5046047;28;19928;-65
2021/03/28 13:27:39;;;;;;;;;;;;;;;16.98;36.26;102355.09;5041837;28;19924;-66
2021/03/28 13:30:17;;;;;;;;;;;;;;;16.97;34.72;102354.28;5046293;28;19924;-66
2021/03/28 13:32:44;;;;;;;;;;;;;;;17.12;35.83;102348.31;5057268;28;19925;-67